sensor_id;sensor_type;location;lat;lon;timestamp;pressure;altitude;pressure_sealevel;temperature;humidity
74633;BME280;63139;52.018;8.552;2023-08-06T00:00:28;99607.31;;;14.43;99.62
74633;BME280;63139;52.018;8.552;2023-08-06T00:02:56;99601.38;;;14.41;99.67
74633;BME280;63139;52.018;8.552;2023-08-06T00:05:24;99610.38;;;14.40;99.95
74633;BME280;63139;52.018;8.552;2023-08-06T00:07:52;99607.09;;;14.37;100.00
74633;BME280;63139;52.018;8.552;2023-08-06T00:10:21;99602.19;;;14.34;99.89
74633;BME280;63139;52.018;8.552;2023-08-06T00:12:49;99600.19;;;14.30;100.00
74633;BME280;63139;52.018;8.552;2023-08-06T00:15:17;99604.28;;;14.26;100.00
74633;BME280;63139;52.018;8.552;2023-08-06T00:17:47;99615.34;;;14.23;100.00
74633;BME280;63139;52.018;8.552;2023-08-06T00:20:15;99604.94;;;14.21;100.00
74633;BME280;63139;52.018;8.552;2023-08-06T00:22:43;99604.72;;;14.23;100.00
74633;BME280;63139;52.018;8.552;2023-08-06T00:25:11;99605.94;;;14.27;100.00
74633;BME280;63139;52.018;8.552;2023-08-06T00:27:39;99596.47;;;14.31;100.00
74633;BME280;63139;52.018;8.552;2023-08-06T00:30:07;99598.50;;;14.35;100.00
74633;BME280;63139;52.018;8.552;2023-08-06T00:32:35;99600.56;;;14.40;100.00
74633;BME280;63139;52.018;8.552;2023-08-06T00:35:05;99594.81;;;14.43;100.00
74633;BME280;63139;52.018;8.552;2023-08-06T00:37:33;99585.56;;;14.46;100.00
74633;BME280;63139;52.018;8.552;2023-08-06T00:40:02;99587.59;;;14.50;100.00
74633;BME280;63139;52.018;8.552;2023-08-06T00:42:30;99588.19;;;14.52;100.00
74633;BME280;63139;52.018;8.552;2023-08-06T00:44:58;99590.63;;;14.54;100.00
74633;BME280;63139;52.018;8.552;2023-08-06T00:47:26;99588.34;;;14.57;100.00
74633;BME280;63139;52.018;8.552;2023-08-06T00:49:54;99585.91;;;14.56;100.00
74633;BME280;63139;52.018;8.552;2023-08-06T00:52:24;99580.38;;;14.57;100.00
74633;BME280;63139;52.018;8.552;2023-08-06T00:54:52;99575.66;;;14.59;100.00
74633;BME280;63139;52.018;8.552;2023-08-06T00:57:23;99562.31;;;14.59;100.00
74633;BME280;63139;52.018;8.552;2023-08-06T00:59:53;99559.41;;;14.61;100.00
74633;BME280;63139;52.018;8.552;2023-08-06T01:02:22;99553.28;;;14.60;100.00
74633;BME280;63139;52.018;8.552;2023-08-06T01:04:50;99556.53;;;14.62;99.79
74633;BME280;63139;52.018;8.552;2023-08-06T01:07:28;99560.03;;;14.63;99.75
74633;BME280;63139;52.018;8.552;2023-08-06T01:10:16;99552.84;;;14.63;100.00
74633;BME280;63139;52.018;8.552;2023-08-06T01:12:52;99551.00;;;14.64;99.79
74633;BME280;63139;52.018;8.552;2023-08-06T01:15:25;99551.63;;;14.66;99.74
74633;BME280;63139;52.018;8.552;2023-08-06T01:17:55;99544.44;;;14.66;99.60
74633;BME280;63139;52.018;8.552;2023-08-06T01:20:28;99546.66;;;14.69;99.77
74633;BME280;63139;52.018;8.552;2023-08-06T01:22:57;99545.84;;;14.69;99.70
74633;BME280;63139;52.018;8.552;2023-08-06T01:25:29;99546.44;;;14.71;99.53
74633;BME280;63139;52.018;8.552;2023-08-06T01:28:04;99541.72;;;14.73;99.77
74633;BME280;63139;52.018;8.552;2023-08-06T01:30:37;99536.16;;;14.74;99.46
74633;BME280;63139;52.018;8.552;2023-08-06T01:33:10;99536.75;;;14.76;99.26
74633;BME280;63139;52.018;8.552;2023-08-06T01:35:44;99535.72;;;14.77;99.19
74633;BME280;63139;52.018;8.552;2023-08-06T01:38:14;99526.69;;;14.79;98.73
74633;BME280;63139;52.018;8.552;2023-08-06T01:40:42;99524.03;;;14.79;98.76
74633;BME280;63139;52.018;8.552;2023-08-06T01:43:10;99524.63;;;14.81;99.00
74633;BME280;63139;52.018;8.552;2023-08-06T01:45:38;99522.78;;;14.81;99.08
74633;BME280;63139;52.018;8.552;2023-08-06T01:48:06;99523.34;;;14.83;99.20
74633;BME280;63139;52.018;8.552;2023-08-06T01:50:34;99519.66;;;14.84;99.16
74633;BME280;63139;52.018;8.552;2023-08-06T01:53:03;99515.16;;;14.85;99.04
74633;BME280;63139;52.018;8.552;2023-08-06T01:55:31;99503.69;;;14.84;99.25
74633;BME280;63139;52.018;8.552;2023-08-06T01:57:59;99504.50;;;14.85;98.76
74633;BME280;63139;52.018;8.552;2023-08-06T02:00:27;99504.50;;;14.85;98.64
74633;BME280;63139;52.018;8.552;2023-08-06T02:02:55;99505.53;;;14.84;98.72
74633;BME280;63139;52.018;8.552;2023-08-06T02:05:23;99505.53;;;14.84;98.78
74633;BME280;63139;52.018;8.552;2023-08-06T02:07:51;99503.06;;;14.82;98.59
74633;BME280;63139;52.018;8.552;2023-08-06T02:10:21;99493.47;;;14.81;98.60
74633;BME280;63139;52.018;8.552;2023-08-06T02:12:49;99493.91;;;14.78;98.64
74633;BME280;63139;52.018;8.552;2023-08-06T02:15:17;99498.06;;;14.74;98.58
74633;BME280;63139;52.018;8.552;2023-08-06T02:17:45;99503.19;;;14.69;98.73
74633;BME280;63139;52.018;8.552;2023-08-06T02:20:13;99497.72;;;14.64;98.69
74633;BME280;63139;52.018;8.552;2023-08-06T02:22:41;99500.22;;;14.59;99.05
74633;BME280;63139;52.018;8.552;2023-08-06T02:25:09;99494.50;;;14.55;99.29
74633;BME280;63139;52.018;8.552;2023-08-06T02:27:38;99492.50;;;14.51;99.70
74633;BME280;63139;52.018;8.552;2023-08-06T02:30:07;99486.44;;;14.44;99.40
74633;BME280;63139;52.018;8.552;2023-08-06T02:32:35;99487.91;;;14.33;99.24
74633;BME280;63139;52.018;8.552;2023-08-06T02:35:03;99482.47;;;14.21;99.22
74633;BME280;63139;52.018;8.552;2023-08-06T02:37:33;99484.41;;;14.08;99.30
74633;BME280;63139;52.018;8.552;2023-08-06T02:40:02;99474.88;;;13.93;99.56
74633;BME280;63139;52.018;8.552;2023-08-06T02:42:30;99469.03;;;13.78;99.87
74633;BME280;63139;52.018;8.552;2023-08-06T02:44:59;99475.84;;;13.68;100.00
74633;BME280;63139;52.018;8.552;2023-08-06T02:47:28;99469.34;;;13.57;100.00
74633;BME280;63139;52.018;8.552;2023-08-06T02:49:56;99467.16;;;13.47;100.00
74633;BME280;63139;52.018;8.552;2023-08-06T02:52:24;99464.53;;;13.41;100.00
74633;BME280;63139;52.018;8.552;2023-08-06T02:54:52;99463.75;;;13.34;100.00
74633;BME280;63139;52.018;8.552;2023-08-06T02:57:20;99463.94;;;13.32;100.00
74633;BME280;63139;52.018;8.552;2023-08-06T02:59:51;99468.66;;;13.30;100.00
74633;BME280;63139;52.018;8.552;2023-08-06T03:02:22;99466.03;;;13.24;100.00
74633;BME280;63139;52.018;8.552;2023-08-06T03:04:58;99456.00;;;13.19;100.00
74633;BME280;63139;52.018;8.552;2023-08-06T03:07:30;99455.84;;;13.14;100.00
74633;BME280;63139;52.018;8.552;2023-08-06T03:10:07;99452.34;;;13.07;100.00
74633;BME280;63139;52.018;8.552;2023-08-06T03:12:35;99456.66;;;13.01;100.00
74633;BME280;63139;52.018;8.552;2023-08-06T03:15:05;99445.03;;;12.96;100.00
74633;BME280;63139;52.018;8.552;2023-08-06T03:17:35;99448.50;;;12.90;100.00
74633;BME280;63139;52.018;8.552;2023-08-06T03:20:05;99448.53;;;12.83;100.00
74633;BME280;63139;52.018;8.552;2023-08-06T03:22:34;99452.63;;;12.79;100.00
74633;BME280;63139;52.018;8.552;2023-08-06T03:25:03;99438.56;;;12.72;100.00
74633;BME280;63139;52.018;8.552;2023-08-06T03:27:32;99445.69;;;12.71;100.00
74633;BME280;63139;52.018;8.552;2023-08-06T03:30:01;99444.69;;;12.66;100.00
74633;BME280;63139;52.018;8.552;2023-08-06T03:32:30;99437.34;;;12.61;100.00
74633;BME280;63139;52.018;8.552;2023-08-06T03:35:00;99438.78;;;12.57;100.00
74633;BME280;63139;52.018;8.552;2023-08-06T03:37:30;99434.69;;;12.55;100.00
74633;BME280;63139;52.018;8.552;2023-08-06T03:39:58;99441.84;;;12.54;100.00
74633;BME280;63139;52.018;8.552;2023-08-06T03:42:26;99434.50;;;12.56;100.00
74633;BME280;63139;52.018;8.552;2023-08-06T03:44:54;99434.88;;;12.60;100.00
74633;BME280;63139;52.018;8.552;2023-08-06T03:47:22;99431.81;;;12.63;100.00
74633;BME280;63139;52.018;8.552;2023-08-06T03:49:51;99425.50;;;12.64;100.00
74633;BME280;63139;52.018;8.552;2023-08-06T03:52:22;99431.00;;;12.62;100.00
74633;BME280;63139;52.018;8.552;2023-08-06T03:54:50;99427.16;;;12.58;100.00
74633;BME280;63139;52.018;8.552;2023-08-06T03:57:18;99419.56;;;12.55;100.00
74633;BME280;63139;52.018;8.552;2023-08-06T03:59:47;99424.28;;;12.53;100.00
74633;BME280;63139;52.018;8.552;2023-08-06T04:02:23;99423.25;;;12.54;100.00
74633;BME280;63139;52.018;8.552;2023-08-06T04:04:51;99421.41;;;12.55;100.00
74633;BME280;63139;52.018;8.552;2023-08-06T04:07:20;99420.19;;;12.57;100.00
74633;BME280;63139;52.018;8.552;2023-08-06T04:09:57;99417.53;;;12.64;100.00
74633;BME280;63139;52.018;8.552;2023-08-06T04:12:26;99415.66;;;12.71;100.00
74633;BME280;63139;52.018;8.552;2023-08-06T04:14:54;99413.59;;;12.79;100.00
74633;BME280;63139;52.018;8.552;2023-08-06T04:17:22;99416.84;;;12.88;100.00
74633;BME280;63139;52.018;8.552;2023-08-06T04:19:52;99414.56;;;12.98;100.00
74633;BME280;63139;52.018;8.552;2023-08-06T04:22:21;99411.25;;;13.09;100.00
74633;BME280;63139;52.018;8.552;2023-08-06T04:24:49;99422.28;;;13.19;100.00
74633;BME280;63139;52.018;8.552;2023-08-06T04:27:19;99422.66;;;13.30;100.00
74633;BME280;63139;52.018;8.552;2023-08-06T04:29:48;99408.09;;;13.39;100.00
74633;BME280;63139;52.018;8.552;2023-08-06T04:32:16;99415.81;;;13.47;100.00
74633;BME280;63139;52.018;8.552;2023-08-06T04:34:49;99417.19;;;13.56;100.00
74633;BME280;63139;52.018;8.552;2023-08-06T04:37:17;99411.59;;;13.64;100.00
74633;BME280;63139;52.018;8.552;2023-08-06T04:39:46;99410.31;;;13.73;100.00
74633;BME280;63139;52.018;8.552;2023-08-06T04:42:14;99416.41;;;13.80;100.00
74633;BME280;63139;52.018;8.552;2023-08-06T04:44:44;99424.13;;;13.88;100.00
74633;BME280;63139;52.018;8.552;2023-08-06T04:47:12;99419.78;;;13.94;100.00
74633;BME280;63139;52.018;8.552;2023-08-06T04:49:41;99421.16;;;14.03;100.00
74633;BME280;63139;52.018;8.552;2023-08-06T04:52:09;99421.50;;;14.13;100.00
74633;BME280;63139;52.018;8.552;2023-08-06T04:54:37;99426.97;;;14.18;100.00
74633;BME280;63139;52.018;8.552;2023-08-06T04:57:05;99422.06;;;14.22;100.00
74633;BME280;63139;52.018;8.552;2023-08-06T04:59:34;99421.59;;;14.25;100.00
74633;BME280;63139;52.018;8.552;2023-08-06T05:02:03;99428.56;;;14.26;100.00
74633;BME280;63139;52.018;8.552;2023-08-06T05:04:31;99418.31;;;14.29;100.00
74633;BME280;63139;52.018;8.552;2023-08-06T05:07:00;99428.50;;;14.32;100.00
74633;BME280;63139;52.018;8.552;2023-08-06T05:09:28;99423.56;;;14.36;100.00
74633;BME280;63139;52.018;8.552;2023-08-06T05:11:56;99422.13;;;14.40;100.00
74633;BME280;63139;52.018;8.552;2023-08-06T05:14:24;99419.38;;;14.47;100.00
74633;BME280;63139;52.018;8.552;2023-08-06T05:16:52;99415.63;;;14.54;100.00
74633;BME280;63139;52.018;8.552;2023-08-06T05:19:21;99419.03;;;14.61;100.00
74633;BME280;63139;52.018;8.552;2023-08-06T05:21:49;99416.31;;;14.68;100.00
74633;BME280;63139;52.018;8.552;2023-08-06T05:24:17;99422.63;;;14.73;99.70
74633;BME280;63139;52.018;8.552;2023-08-06T05:26:48;99425.22;;;14.80;99.41
74633;BME280;63139;52.018;8.552;2023-08-06T05:29:16;99428.97;;;14.91;99.00
74633;BME280;63139;52.018;8.552;2023-08-06T05:31:44;99426.41;;;15.02;98.45
74633;BME280;63139;52.018;8.552;2023-08-06T05:34:12;99431.91;;;15.19;97.67
74633;BME280;63139;52.018;8.552;2023-08-06T05:36:42;99424.81;;;15.31;97.00
74633;BME280;63139;52.018;8.552;2023-08-06T05:39:10;99424.50;;;15.39;96.48
74633;BME280;63139;52.018;8.552;2023-08-06T05:41:38;99430.50;;;15.53;95.62
74633;BME280;63139;52.018;8.552;2023-08-06T05:44:05;99420.91;;;15.64;95.16
74633;BME280;63139;52.018;8.552;2023-08-06T05:46:33;99418.41;;;15.80;94.61
74633;BME280;63139;52.018;8.552;2023-08-06T05:49:01;99419.16;;;15.99;93.59
74633;BME280;63139;52.018;8.552;2023-08-06T05:51:30;99419.53;;;16.14;93.31
74633;BME280;63139;52.018;8.552;2023-08-06T05:53:59;99412.59;;;16.37;91.70
74633;BME280;63139;52.018;8.552;2023-08-06T05:56:27;99417.22;;;16.53;90.58
74633;BME280;63139;52.018;8.552;2023-08-06T05:58:55;99416.66;;;16.62;90.14
74633;BME280;63139;52.018;8.552;2023-08-06T06:01:23;99425.50;;;16.75;89.93
74633;BME280;63139;52.018;8.552;2023-08-06T06:03:51;99417.22;;;16.76;89.76
74633;BME280;63139;52.018;8.552;2023-08-06T06:06:19;99415.59;;;16.75;89.59
74633;BME280;63139;52.018;8.552;2023-08-06T06:08:47;99413.06;;;16.68;89.36
74633;BME280;63139;52.018;8.552;2023-08-06T06:11:17;99420.56;;;16.60;89.43
74633;BME280;63139;52.018;8.552;2023-08-06T06:13:50;99423.97;;;16.55;89.50
74633;BME280;63139;52.018;8.552;2023-08-06T06:16:18;99411.53;;;16.49;89.56
74633;BME280;63139;52.018;8.552;2023-08-06T06:18:46;99421.84;;;16.46;89.76
74633;BME280;63139;52.018;8.552;2023-08-06T06:21:14;99417.47;;;16.51;90.04
74633;BME280;63139;52.018;8.552;2023-08-06T06:23:42;99413.19;;;16.62;89.52
74633;BME280;63139;52.018;8.552;2023-08-06T06:26:10;99416.06;;;16.84;88.85
74633;BME280;63139;52.018;8.552;2023-08-06T06:28:40;99421.69;;;17.22;87.49
74633;BME280;63139;52.018;8.552;2023-08-06T06:31:08;99412.03;;;17.61;86.83
74633;BME280;63139;52.018;8.552;2023-08-06T06:33:36;99413.56;;;17.74;86.36
74633;BME280;63139;52.018;8.552;2023-08-06T06:36:04;99409.69;;;17.53;87.10
74633;BME280;63139;52.018;8.552;2023-08-06T06:38:34;99415.19;;;17.46;86.78
74633;BME280;63139;52.018;8.552;2023-08-06T06:41:02;99407.69;;;17.32;87.43
74633;BME280;63139;52.018;8.552;2023-08-06T06:43:32;99407.03;;;17.25;87.59
74633;BME280;63139;52.018;8.552;2023-08-06T06:46:01;99405.47;;;17.29;87.27
74633;BME280;63139;52.018;8.552;2023-08-06T06:48:31;99403.38;;;17.31;87.85
74633;BME280;63139;52.018;8.552;2023-08-06T06:51:00;99403.38;;;17.31;88.23
74633;BME280;63139;52.018;8.552;2023-08-06T06:53:28;99406.66;;;17.33;87.83
74633;BME280;63139;52.018;8.552;2023-08-06T06:56:00;99400.66;;;17.42;87.16
74633;BME280;63139;52.018;8.552;2023-08-06T06:58:29;99402.13;;;17.50;86.70
74633;BME280;63139;52.018;8.552;2023-08-06T07:00:57;99398.75;;;17.55;86.57
74633;BME280;63139;52.018;8.552;2023-08-06T07:03:26;99399.13;;;17.46;86.99
74633;BME280;63139;52.018;8.552;2023-08-06T07:05:57;99388.44;;;17.46;87.18
74633;BME280;63139;52.018;8.552;2023-08-06T07:08:25;99388.91;;;17.43;87.04
74633;BME280;63139;52.018;8.552;2023-08-06T07:10:59;99390.88;;;17.48;86.26
74633;BME280;63139;52.018;8.552;2023-08-06T07:13:29;99394.91;;;17.51;86.77
74633;BME280;63139;52.018;8.552;2023-08-06T07:15:57;99390.69;;;17.66;86.27
74633;BME280;63139;52.018;8.552;2023-08-06T07:18:26;99394.44;;;17.82;86.47
74633;BME280;63139;52.018;8.552;2023-08-06T07:20:55;99392.59;;;17.99;85.42
74633;BME280;63139;52.018;8.552;2023-08-06T07:23:24;99395.53;;;18.14;84.87
74633;BME280;63139;52.018;8.552;2023-08-06T07:25:53;99389.31;;;18.31;84.40
74633;BME280;63139;52.018;8.552;2023-08-06T07:28:21;99396.34;;;18.53;83.85
74633;BME280;63139;52.018;8.552;2023-08-06T07:30:49;99390.00;;;18.76;82.70
74633;BME280;63139;52.018;8.552;2023-08-06T07:33:17;99388.47;;;19.02;82.13
74633;BME280;63139;52.018;8.552;2023-08-06T07:35:46;99385.81;;;19.29;81.54
74633;BME280;63139;52.018;8.552;2023-08-06T07:38:14;99392.38;;;19.65;80.55
74633;BME280;63139;52.018;8.552;2023-08-06T07:40:42;99389.97;;;19.95;79.46
74633;BME280;63139;52.018;8.552;2023-08-06T07:43:10;99393.63;;;20.16;78.12
74633;BME280;63139;52.018;8.552;2023-08-06T07:45:38;99387.28;;;20.27;77.69
74633;BME280;63139;52.018;8.552;2023-08-06T07:48:06;99398.44;;;20.46;76.79
74633;BME280;63139;52.018;8.552;2023-08-06T07:50:34;99391.53;;;20.55;75.60
74633;BME280;63139;52.018;8.552;2023-08-06T07:53:04;99388.28;;;20.53;75.07
74633;BME280;63139;52.018;8.552;2023-08-06T07:55:32;99390.69;;;20.49;75.72
74633;BME280;63139;52.018;8.552;2023-08-06T07:58:00;99379.34;;;20.42;74.82
74633;BME280;63139;52.018;8.552;2023-08-06T08:00:28;99382.59;;;20.44;74.00
74633;BME280;63139;52.018;8.552;2023-08-06T08:02:56;99380.25;;;20.58;73.67
74633;BME280;63139;52.018;8.552;2023-08-06T08:05:25;99382.53;;;20.81;73.02
74633;BME280;63139;52.018;8.552;2023-08-06T08:07:53;99385.81;;;20.99;72.25
74633;BME280;63139;52.018;8.552;2023-08-06T08:10:22;99378.38;;;21.21;72.01
74633;BME280;63139;52.018;8.552;2023-08-06T08:12:50;99376.59;;;21.47;70.92
74633;BME280;63139;52.018;8.552;2023-08-06T08:15:18;99372.56;;;21.54;70.52
74633;BME280;63139;52.018;8.552;2023-08-06T08:17:46;99376.59;;;21.52;70.09
74633;BME280;63139;52.018;8.552;2023-08-06T08:20:16;99370.69;;;21.55;69.74
74633;BME280;63139;52.018;8.552;2023-08-06T08:22:44;99386.03;;;21.59;68.99
74633;BME280;63139;52.018;8.552;2023-08-06T08:25:12;99380.63;;;21.64;68.37
74633;BME280;63139;52.018;8.552;2023-08-06T08:27:42;99376.59;;;21.67;68.21
74633;BME280;63139;52.018;8.552;2023-08-06T08:30:10;99382.28;;;21.76;68.69
74633;BME280;63139;52.018;8.552;2023-08-06T08:32:38;99380.09;;;21.73;68.75
74633;BME280;63139;52.018;8.552;2023-08-06T08:35:07;99383.34;;;21.64;68.73
74633;BME280;63139;52.018;8.552;2023-08-06T08:37:35;99375.28;;;21.75;68.48
74633;BME280;63139;52.018;8.552;2023-08-06T08:40:05;99383.69;;;21.98;68.31
74633;BME280;63139;52.018;8.552;2023-08-06T08:42:33;99372.06;;;22.13;67.80
74633;BME280;63139;52.018;8.552;2023-08-06T08:45:04;99371.78;;;22.35;66.13
74633;BME280;63139;52.018;8.552;2023-08-06T08:47:35;99373.34;;;22.56;65.29
74633;BME280;63139;52.018;8.552;2023-08-06T08:50:05;99371.94;;;22.69;65.62
74633;BME280;63139;52.018;8.552;2023-08-06T08:52:35;99372.81;;;22.54;65.46
74633;BME280;63139;52.018;8.552;2023-08-06T08:55:04;99378.50;;;22.53;64.76
74633;BME280;63139;52.018;8.552;2023-08-06T08:57:32;99382.56;;;22.40;64.85
74633;BME280;63139;52.018;8.552;2023-08-06T09:00:00;99378.75;;;22.46;64.04
74633;BME280;63139;52.018;8.552;2023-08-06T09:02:30;99384.44;;;22.44;64.52
74633;BME280;63139;52.018;8.552;2023-08-06T09:05:01;99386.31;;;22.39;64.46
74633;BME280;63139;52.018;8.552;2023-08-06T09:07:32;99377.97;;;22.25;64.14
74633;BME280;63139;52.018;8.552;2023-08-06T09:10:03;99382.31;;;22.21;64.62
74633;BME280;63139;52.018;8.552;2023-08-06T09:12:32;99379.59;;;22.26;63.77
74633;BME280;63139;52.018;8.552;2023-08-06T09:15:00;99376.63;;;22.43;63.83
74633;BME280;63139;52.018;8.552;2023-08-06T09:17:31;99383.03;;;22.77;62.83
74633;BME280;63139;52.018;8.552;2023-08-06T09:19:59;99378.06;;;23.10;61.24
74633;BME280;63139;52.018;8.552;2023-08-06T09:22:36;99388.16;;;23.48;60.45
74633;BME280;63139;52.018;8.552;2023-08-06T09:25:04;99384.53;;;23.63;59.84
74633;BME280;63139;52.018;8.552;2023-08-06T09:27:36;99385.06;;;23.65;58.39
74633;BME280;63139;52.018;8.552;2023-08-06T09:30:06;99381.34;;;23.56;57.91
74633;BME280;63139;52.018;8.552;2023-08-06T09:32:49;99382.88;;;23.13;55.85
74633;BME280;63139;52.018;8.552;2023-08-06T09:35:18;99373.72;;;23.09;58.59
74633;BME280;63139;52.018;8.552;2023-08-06T09:37:47;99376.16;;;23.05;58.37
74633;BME280;63139;52.018;8.552;2023-08-06T09:40:26;99378.34;;;23.03;57.87
74633;BME280;63139;52.018;8.552;2023-08-06T09:42:54;99371.59;;;23.01;59.72
74633;BME280;63139;52.018;8.552;2023-08-06T09:45:22;99376.28;;;22.75;57.52
74633;BME280;63139;52.018;8.552;2023-08-06T09:47:55;99365.78;;;22.53;58.33
74633;BME280;63139;52.018;8.552;2023-08-06T09:50:28;99359.91;;;22.26;59.03
74633;BME280;63139;52.018;8.552;2023-08-06T09:52:57;99363.16;;;22.02;61.08
74633;BME280;63139;52.018;8.552;2023-08-06T09:55:25;99363.69;;;21.74;59.74
74633;BME280;63139;52.018;8.552;2023-08-06T09:57:54;99363.66;;;21.54;61.14
74633;BME280;63139;52.018;8.552;2023-08-06T10:00:22;99359.31;;;21.43;61.32
74633;BME280;63139;52.018;8.552;2023-08-06T10:02:52;99357.66;;;21.21;61.00
74633;BME280;63139;52.018;8.552;2023-08-06T10:05:23;99354.72;;;21.23;61.13
74633;BME280;63139;52.018;8.552;2023-08-06T10:07:51;99353.94;;;21.43;61.31
74633;BME280;63139;52.018;8.552;2023-08-06T10:10:20;99357.19;;;21.50;61.39
74633;BME280;63139;52.018;8.552;2023-08-06T10:12:50;99359.63;;;21.46;61.56
74633;BME280;63139;52.018;8.552;2023-08-06T10:15:24;99356.66;;;21.53;62.05
74633;BME280;63139;52.018;8.552;2023-08-06T10:17:57;99350.97;;;21.49;62.26
74633;BME280;63139;52.018;8.552;2023-08-06T10:20:25;99349.38;;;21.58;62.04
74633;BME280;63139;52.018;8.552;2023-08-06T10:23:01;99346.94;;;21.57;61.17
74633;BME280;63139;52.018;8.552;2023-08-06T10:25:33;99352.34;;;21.72;61.01
74633;BME280;63139;52.018;8.552;2023-08-06T10:28:07;99354.22;;;21.72;59.83
74633;BME280;63139;52.018;8.552;2023-08-06T10:30:47;99348.59;;;21.63;59.23
74633;BME280;63139;52.018;8.552;2023-08-06T10:33:19;99350.19;;;21.64;59.38
74633;BME280;63139;52.018;8.552;2023-08-06T10:35:50;99344.81;;;21.79;60.53
74633;BME280;63139;52.018;8.552;2023-08-06T10:38:22;99355.34;;;21.91;58.09
74633;BME280;63139;52.018;8.552;2023-08-06T10:41:01;99349.97;;;22.11;56.98
74633;BME280;63139;52.018;8.552;2023-08-06T10:43:32;99341.06;;;22.05;57.27
74633;BME280;63139;52.018;8.552;2023-08-06T10:46:02;99343.75;;;22.16;58.10
74633;BME280;63139;52.018;8.552;2023-08-06T10:48:35;99343.44;;;22.32;57.61
74633;BME280;63139;52.018;8.552;2023-08-06T10:51:09;99341.53;;;22.43;57.07
74633;BME280;63139;52.018;8.552;2023-08-06T10:53:41;99346.69;;;22.44;57.72
74633;BME280;63139;52.018;8.552;2023-08-06T10:56:13;99345.25;;;22.67;56.66
74633;BME280;63139;52.018;8.552;2023-08-06T10:58:41;99343.34;;;22.78;57.21
74633;BME280;63139;52.018;8.552;2023-08-06T11:01:10;99350.88;;;22.86;56.25
74633;BME280;63139;52.018;8.552;2023-08-06T11:03:41;99342.47;;;22.93;55.64
74633;BME280;63139;52.018;8.552;2023-08-06T11:06:09;99344.34;;;22.97;56.44
74633;BME280;63139;52.018;8.552;2023-08-06T11:08:47;99340.81;;;23.02;55.84
74633;BME280;63139;52.018;8.552;2023-08-06T11:11:16;99338.66;;;23.04;56.40
74633;BME280;63139;52.018;8.552;2023-08-06T11:13:46;99334.56;;;23.11;56.03
74633;BME280;63139;52.018;8.552;2023-08-06T11:16:15;99332.91;;;23.15;56.68
74633;BME280;63139;52.018;8.552;2023-08-06T11:18:46;99329.66;;;23.18;56.95
74633;BME280;63139;52.018;8.552;2023-08-06T11:21:14;99323.16;;;23.19;56.75
74633;BME280;63139;52.018;8.552;2023-08-06T11:23:46;99325.50;;;23.36;55.90
74633;BME280;63139;52.018;8.552;2023-08-06T11:26:18;99326.25;;;23.42;53.69
74633;BME280;63139;52.018;8.552;2023-08-06T11:28:47;99328.94;;;23.47;54.37
74633;BME280;63139;52.018;8.552;2023-08-06T11:31:19;99326.81;;;23.49;53.87
74633;BME280;63139;52.018;8.552;2023-08-06T11:33:49;99325.41;;;23.51;52.65
74633;BME280;63139;52.018;8.552;2023-08-06T11:36:28;99329.69;;;23.57;52.16
74633;BME280;63139;52.018;8.552;2023-08-06T11:38:56;99331.25;;;23.69;53.33
74633;BME280;63139;52.018;8.552;2023-08-06T11:41:24;99316.59;;;23.75;53.06
74633;BME280;63139;52.018;8.552;2023-08-06T11:43:52;99323.81;;;23.84;52.82
74633;BME280;63139;52.018;8.552;2023-08-06T11:46:20;99322.81;;;24.04;53.17
74633;BME280;63139;52.018;8.552;2023-08-06T11:48:55;99318.97;;;24.10;52.01
74633;BME280;63139;52.018;8.552;2023-08-06T11:51:23;99319.88;;;24.01;52.50
74633;BME280;63139;52.018;8.552;2023-08-06T11:53:56;99314.44;;;24.06;51.78
74633;BME280;63139;52.018;8.552;2023-08-06T11:56:25;99308.25;;;24.00;52.25
74633;BME280;63139;52.018;8.552;2023-08-06T11:58:54;99301.19;;;24.04;51.92
74633;BME280;63139;52.018;8.552;2023-08-06T12:01:23;99292.31;;;23.98;51.59
74633;BME280;63139;52.018;8.552;2023-08-06T12:03:51;99294.59;;;24.15;50.95
74633;BME280;63139;52.018;8.552;2023-08-06T12:06:21;99287.25;;;24.21;51.52
74633;BME280;63139;52.018;8.552;2023-08-06T12:08:50;99289.44;;;24.43;51.09
74633;BME280;63139;52.018;8.552;2023-08-06T12:11:21;99291.78;;;24.49;51.29
74633;BME280;63139;52.018;8.552;2023-08-06T12:13:50;99297.75;;;24.70;49.42
74633;BME280;63139;52.018;8.552;2023-08-06T12:16:18;99294.09;;;24.61;51.02
74633;BME280;63139;52.018;8.552;2023-08-06T12:18:48;99288.34;;;25.10;50.30
74633;BME280;63139;52.018;8.552;2023-08-06T12:21:16;99291.25;;;25.32;49.13
74633;BME280;63139;52.018;8.552;2023-08-06T12:23:46;99287.88;;;25.40;48.18
74633;BME280;63139;52.018;8.552;2023-08-06T12:26:14;99283.31;;;25.55;49.27
74633;BME280;63139;52.018;8.552;2023-08-06T12:28:42;99280.59;;;25.55;48.48
74633;BME280;63139;52.018;8.552;2023-08-06T12:31:10;99295.34;;;25.67;47.69
74633;BME280;63139;52.018;8.552;2023-08-06T12:33:38;99290.13;;;25.52;47.20
74633;BME280;63139;52.018;8.552;2023-08-06T12:36:06;99287.75;;;25.83;47.86
74633;BME280;63139;52.018;8.552;2023-08-06T12:38:34;99277.91;;;25.87;47.19
74633;BME280;63139;52.018;8.552;2023-08-06T12:41:04;99278.78;;;25.69;46.87
74633;BME280;63139;52.018;8.552;2023-08-06T12:43:32;99280.00;;;25.76;47.67
74633;BME280;63139;52.018;8.552;2023-08-06T12:46:00;99286.03;;;25.55;46.29
74633;BME280;63139;52.018;8.552;2023-08-06T12:48:28;99279.31;;;25.33;46.94
74633;BME280;63139;52.018;8.552;2023-08-06T12:50:56;99281.69;;;25.53;46.93
74633;BME280;63139;52.018;8.552;2023-08-06T12:53:25;99279.28;;;25.52;46.51
74633;BME280;63139;52.018;8.552;2023-08-06T12:55:53;99274.41;;;25.17;47.45
74633;BME280;63139;52.018;8.552;2023-08-06T12:58:22;99266.91;;;25.27;47.75
74633;BME280;63139;52.018;8.552;2023-08-06T13:00:50;99275.66;;;25.05;47.39
74633;BME280;63139;52.018;8.552;2023-08-06T13:03:18;99273.03;;;25.19;48.12
74633;BME280;63139;52.018;8.552;2023-08-06T13:05:46;99283.41;;;25.31;48.42
74633;BME280;63139;52.018;8.552;2023-08-06T13:08:14;99284.75;;;25.33;47.93